sensor_id;sensor_type;location;lat;lon;timestamp;pressure;altitude;pressure_sealevel;temperature;humidity
52927;BME280;40783;49.710;8.842;2023-01-30T05:05:56;99398.84;;;-0.96;100.00
52927;BME280;40783;49.710;8.842;2023-01-30T05:08:22;99389.63;;;-0.87;100.00
52927;BME280;40783;49.710;8.842;2023-01-30T05:10:47;99379.38;;;-0.92;100.00
52927;BME280;40783;49.710;8.842;2023-01-30T05:13:14;99376.66;;;-0.90;100.00
52927;BME280;40783;49.710;8.842;2023-01-30T05:15:40;99370.97;;;-0.98;100.00
52927;BME280;40783;49.710;8.842;2023-01-30T05:18:09;99373.28;;;-0.92;100.00
52927;BME280;40783;49.710;8.842;2023-01-30T05:20:37;99378.69;;;-0.95;100.00
52927;BME280;40783;49.710;8.842;2023-01-30T05:23:02;99380.53;;;-0.97;100.00
52927;BME280;40783;49.710;8.842;2023-01-30T05:25:27;99369.88;;;-0.94;100.00
52927;BME280;40783;49.710;8.842;2023-01-30T05:27:52;99376.50;;;-0.87;100.00
52927;BME280;40783;49.710;8.842;2023-01-30T05:30:23;99370.66;;;-0.92;100.00
52927;BME280;40783;49.710;8.842;2023-01-30T05:32:50;99368.88;;;-0.92;100.00
52927;BME280;40783;49.710;8.842;2023-01-30T05:35:16;99367.53;;;-0.83;100.00
52927;BME280;40783;49.710;8.842;2023-01-30T05:37:41;99366.72;;;-0.83;100.00
52927;BME280;40783;49.710;8.842;2023-01-30T05:40:07;99381.59;;;-0.84;100.00
52927;BME280;40783;49.710;8.842;2023-01-30T05:42:33;99379.13;;;-0.87;100.00
52927;BME280;40783;49.710;8.842;2023-01-30T05:45:00;99393.19;;;-0.88;100.00
52927;BME280;40783;49.710;8.842;2023-01-30T05:47:26;99395.66;;;-0.85;100.00
52927;BME280;40783;49.710;8.842;2023-01-30T05:49:51;99402.44;;;-0.81;100.00
52927;BME280;40783;49.710;8.842;2023-01-30T05:52:16;99410.41;;;-0.82;100.00
52927;BME280;40783;49.710;8.842;2023-01-30T05:54:44;99405.53;;;-0.72;100.00
52927;BME280;40783;49.710;8.842;2023-01-30T05:57:12;99406.97;;;-0.67;100.00
52927;BME280;40783;49.710;8.842;2023-01-30T05:59:39;99395.34;;;-0.79;100.00
52927;BME280;40783;49.710;8.842;2023-01-30T06:02:07;99411.09;;;-0.79;100.00
52927;BME280;40783;49.710;8.842;2023-01-30T06:04:35;99410.41;;;-0.82;100.00
52927;BME280;40783;49.710;8.842;2023-01-30T06:07:00;99404.97;;;-0.79;100.00
52927;BME280;40783;49.710;8.842;2023-01-30T06:09:28;99391.03;;;-0.80;100.00
52927;BME280;40783;49.710;8.842;2023-01-30T06:11:55;99376.88;;;-0.77;100.00
52927;BME280;40783;49.710;8.842;2023-01-30T06:14:23;99364.50;;;-0.75;100.00
52927;BME280;40783;49.710;8.842;2023-01-30T06:16:50;99371.22;;;-0.69;100.00
52927;BME280;40783;49.710;8.842;2023-01-30T06:19:16;99369.25;;;-0.82;100.00
52927;BME280;40783;49.710;8.842;2023-01-30T06:21:41;99355.03;;;-0.78;100.00
52927;BME280;40783;49.710;8.842;2023-01-30T06:24:08;99367.22;;;-0.77;100.00
52927;BME280;40783;49.710;8.842;2023-01-30T06:26:36;99363.78;;;-0.61;100.00
52927;BME280;40783;49.710;8.842;2023-01-30T06:29:01;99363.34;;;-0.69;100.00
52927;BME280;40783;49.710;8.842;2023-01-30T06:31:26;99352.59;;;-0.65;100.00
52927;BME280;40783;49.710;8.842;2023-01-30T06:33:54;99351.16;;;-0.54;100.00
52927;BME280;40783;49.710;8.842;2023-01-30T06:36:19;99348.25;;;-0.66;100.00
52927;BME280;40783;49.710;8.842;2023-01-30T06:38:45;99351.16;;;-0.54;100.00
52927;BME280;40783;49.710;8.842;2023-01-30T06:41:13;99341.84;;;-0.60;100.00
52927;BME280;40783;49.710;8.842;2023-01-30T06:43:39;99347.09;;;-0.60;100.00
52927;BME280;40783;49.710;8.842;2023-01-30T06:46:05;99347.09;;;-0.60;100.00
52927;BME280;40783;49.710;8.842;2023-01-30T06:48:32;99343.88;;;-0.65;100.00
52927;BME280;40783;49.710;8.842;2023-01-30T06:50:57;99346.34;;;-0.62;100.00
52927;BME280;40783;49.710;8.842;2023-01-30T06:53:23;99348.81;;;-0.59;100.00
52927;BME280;40783;49.710;8.842;2023-01-30T06:55:55;99363.69;;;-0.60;100.00
52927;BME280;40783;49.710;8.842;2023-01-30T06:58:22;99348.13;;;-0.47;100.00
52927;BME280;40783;49.710;8.842;2023-01-30T07:00:50;99346.94;;;-0.57;100.00
52927;BME280;40783;49.710;8.842;2023-01-30T07:03:17;99347.94;;;-0.43;100.00
52927;BME280;40783;49.710;8.842;2023-01-30T07:05:44;99343.03;;;-0.50;100.00
52927;BME280;40783;49.710;8.842;2023-01-30T07:08:10;99346.59;;;-0.51;100.00
52927;BME280;40783;49.710;8.842;2023-01-30T07:10:37;99356.16;;;-0.50;100.00
52927;BME280;40783;49.710;8.842;2023-01-30T07:13:06;99353.69;;;-0.53;100.00
52927;BME280;40783;49.710;8.842;2023-01-30T07:15:32;99349.22;;;-0.51;100.00
52927;BME280;40783;49.710;8.842;2023-01-30T07:17:57;99358.63;;;-0.47;100.00
52927;BME280;40783;49.710;8.842;2023-01-30T07:20:25;99336.59;;;-0.44;100.00
52927;BME280;40783;49.710;8.842;2023-01-30T07:22:52;99347.94;;;-0.43;100.00
52927;BME280;40783;49.710;8.842;2023-01-30T07:25:19;99339.91;;;-0.40;100.00
52927;BME280;40783;49.710;8.842;2023-01-30T07:27:51;99341.75;;;-0.42;100.00
52927;BME280;40783;49.710;8.842;2023-01-30T07:30:16;99330.81;;;-0.51;100.00
52927;BME280;40783;49.710;8.842;2023-01-30T07:32:42;99338.53;;;-0.48;100.00
52927;BME280;40783;49.710;8.842;2023-01-30T07:35:09;99373.47;;;-0.46;100.00
52927;BME280;40783;49.710;8.842;2023-01-30T07:37:37;99377.44;;;-0.38;100.00
52927;BME280;40783;49.710;8.842;2023-01-30T07:40:05;99391.03;;;-0.30;100.00
52927;BME280;40783;49.710;8.842;2023-01-30T07:42:34;99374.22;;;-0.43;100.00
52927;BME280;40783;49.710;8.842;2023-01-30T07:45:01;99353.81;;;-0.38;100.00
52927;BME280;40783;49.710;8.842;2023-01-30T07:47:29;99371.09;;;-0.34;100.00
52927;BME280;40783;49.710;8.842;2023-01-30T07:49:55;99379.00;;;-0.34;100.00
52927;BME280;40783;49.710;8.842;2023-01-30T07:52:20;99381.78;;;-0.37;100.00
52927;BME280;40783;49.710;8.842;2023-01-30T07:54:45;99358.13;;;-0.37;100.00
52927;BME280;40783;49.710;8.842;2023-01-30T07:57:11;99374.44;;;-0.31;100.00
52927;BME280;40783;49.710;8.842;2023-01-30T07:59:36;99376.63;;;-0.23;100.00
52927;BME280;40783;49.710;8.842;2023-01-30T08:02:05;99380.34;;;-0.27;100.00
52927;BME280;40783;49.710;8.842;2023-01-30T08:04:30;99392.41;;;-0.23;100.00
52927;BME280;40783;49.710;8.842;2023-01-30T08:06:55;99391.19;;;-0.33;100.00
52927;BME280;40783;49.710;8.842;2023-01-30T08:09:21;99388.84;;;-0.22;100.00
52927;BME280;40783;49.710;8.842;2023-01-30T08:11:49;99385.28;;;-0.21;100.00
52927;BME280;40783;49.710;8.842;2023-01-30T08:14:14;99389.16;;;-0.28;100.00
52927;BME280;40783;49.710;8.842;2023-01-30T08:16:39;99397.50;;;-0.20;100.00
52927;BME280;40783;49.710;8.842;2023-01-30T08:19:05;99388.66;;;-0.19;100.00
52927;BME280;40783;49.710;8.842;2023-01-30T08:21:32;99394.25;;;-0.25;100.00
52927;BME280;40783;49.710;8.842;2023-01-30T08:23:58;99384.41;;;-0.37;100.00
52927;BME280;40783;49.710;8.842;2023-01-30T08:26:23;99368.75;;;-0.39;100.00
52927;BME280;40783;49.710;8.842;2023-01-30T08:28:48;99355.44;;;-0.36;100.00
52927;BME280;40783;49.710;8.842;2023-01-30T08:31:15;99366.28;;;-0.26;100.00
52927;BME280;40783;49.710;8.842;2023-01-30T08:33:41;99376.63;;;-0.23;100.00
52927;BME280;40783;49.710;8.842;2023-01-30T08:36:06;99369.84;;;-0.27;100.00
52927;BME280;40783;49.710;8.842;2023-01-30T08:38:34;99362.72;;;-0.25;100.00
52927;BME280;40783;49.710;8.842;2023-01-30T08:41:05;99365.25;;;-0.23;100.00
52927;BME280;40783;49.710;8.842;2023-01-30T08:43:32;99367.81;;;-0.22;100.00
52927;BME280;40783;49.710;8.842;2023-01-30T08:45:58;99375.25;;;-0.30;100.00
52927;BME280;40783;49.710;8.842;2023-01-30T08:48:24;99389.16;;;-0.28;100.00
52927;BME280;40783;49.710;8.842;2023-01-30T08:50:53;99390.19;;;-0.31;100.00
52927;BME280;40783;49.710;8.842;2023-01-30T08:53:19;99379.31;;;-0.24;100.00
52927;BME280;40783;49.710;8.842;2023-01-30T08:55:51;99390.53;;;-0.21;100.00
52927;BME280;40783;49.710;8.842;2023-01-30T08:58:17;99383.41;;;-0.19;100.00
52927;BME280;40783;49.710;8.842;2023-01-30T09:00:48;99371.53;;;-0.26;100.00
52927;BME280;40783;49.710;8.842;2023-01-30T09:03:16;99363.31;;;-0.20;100.00
52927;BME280;40783;49.710;8.842;2023-01-30T09:05:42;99346.78;;;-0.22;100.00
52927;BME280;40783;49.710;8.842;2023-01-30T09:08:07;99349.09;;;-0.32;100.00
52927;BME280;40783;49.710;8.842;2023-01-30T09:10:32;99346.94;;;-0.25;100.00
52927;BME280;40783;49.710;8.842;2023-01-30T09:13:00;99342.88;;;-0.14;100.00
52927;BME280;40783;49.710;8.842;2023-01-30T09:15:30;99351.38;;;-0.09;100.00
52927;BME280;40783;49.710;8.842;2023-01-30T09:17:55;99336.59;;;-0.12;100.00
52927;BME280;40783;49.710;8.842;2023-01-30T09:20:23;99346.13;;;-0.09;100.00
52927;BME280;40783;49.710;8.842;2023-01-30T09:22:49;99341.50;;;-0.06;100.00
52927;BME280;40783;49.710;8.842;2023-01-30T09:25:15;99341.34;;;-0.03;100.00
52927;BME280;40783;49.710;8.842;2023-01-30T09:27:42;99339.16;;;-0.10;100.00
52927;BME280;40783;49.710;8.842;2023-01-30T09:30:09;99362.81;;;-0.10;100.00
52927;BME280;40783;49.710;8.842;2023-01-30T09:32:34;99355.75;;;-0.10;100.00
52927;BME280;40783;49.710;8.842;2023-01-30T09:35:02;99346.59;;;-0.03;100.00
52927;BME280;40783;49.710;8.842;2023-01-30T09:37:29;99348.75;;;-0.09;100.00
52927;BME280;40783;49.710;8.842;2023-01-30T09:39:57;99355.44;;;-0.04;100.00
52927;BME280;40783;49.710;8.842;2023-01-30T09:51:17;99343.53;;;0.05;100.00
52927;BME280;40783;49.710;8.842;2023-01-30T09:56:12;99337.09;;;0.11;100.00
52927;BME280;40783;49.710;8.842;2023-01-30T09:58:46;99330.28;;;0.23;100.00
52927;BME280;40783;49.710;8.842;2023-01-30T10:04:18;99344.38;;;0.22;100.00
52927;BME280;40783;49.710;8.842;2023-01-30T10:09:38;99342.66;;;0.21;100.00
52927;BME280;40783;49.710;8.842;2023-01-30T10:15:02;99344.84;;;0.28;100.00
52927;BME280;40783;49.710;8.842;2023-01-30T10:17:50;99345.88;;;0.26;100.00
52927;BME280;40783;49.710;8.842;2023-01-30T10:20:23;99327.06;;;0.18;100.00
52927;BME280;40783;49.710;8.842;2023-01-30T10:26:13;99324.31;;;0.35;100.00
52927;BME280;40783;49.710;8.842;2023-01-30T10:28:55;99318.03;;;0.38;100.00
52927;BME280;40783;49.710;8.842;2023-01-30T10:31:26;99305.63;;;0.40;100.00
52927;BME280;40783;49.710;8.842;2023-01-30T10:36:24;99324.16;;;0.38;100.00
52927;BME280;40783;49.710;8.842;2023-01-30T10:38:53;99322.44;;;0.37;100.00
52927;BME280;40783;49.710;8.842;2023-01-30T10:44:03;99302.75;;;0.59;100.00
52927;BME280;40783;49.710;8.842;2023-01-30T10:49:34;99291.47;;;0.57;100.00
52927;BME280;40783;49.710;8.842;2023-01-30T10:52:21;99274.38;;;0.50;100.00
52927;BME280;40783;49.710;8.842;2023-01-30T10:55:11;99271.81;;;0.48;100.00
52927;BME280;40783;49.710;8.842;2023-01-30T11:00:27;99276.06;;;0.51;100.00
52927;BME280;40783;49.710;8.842;2023-01-30T11:03:20;99291.78;;;0.67;100.00
52927;BME280;40783;49.710;8.842;2023-01-30T11:06:17;99295.66;;;0.76;100.00
52927;BME280;40783;49.710;8.842;2023-01-30T11:08:47;99283.72;;;0.70;100.00
52927;BME280;40783;49.710;8.842;2023-01-30T11:11:34;99281.66;;;0.75;100.00
52927;BME280;40783;49.710;8.842;2023-01-30T11:14:09;99272.88;;;0.74;100.00
52927;BME280;40783;49.710;8.842;2023-01-30T11:16:52;99268.22;;;0.94;100.00
52927;BME280;40783;49.710;8.842;2023-01-30T11:19:26;99254.38;;;0.76;100.00
52927;BME280;40783;49.710;8.842;2023-01-30T11:22:13;99249.78;;;0.80;100.00
52927;BME280;40783;49.710;8.842;2023-01-30T11:25:06;99268.03;;;0.97;100.00
52927;BME280;40783;49.710;8.842;2023-01-30T11:31:38;99253.53;;;1.05;100.00
52927;BME280;40783;49.710;8.842;2023-01-30T11:34:12;99252.94;;;1.14;100.00
52927;BME280;40783;49.710;8.842;2023-01-30T11:36:38;99262.47;;;1.16;100.00
52927;BME280;40783;49.710;8.842;2023-01-30T11:44:45;99254.81;;;1.41;100.00
52927;BME280;40783;49.710;8.842;2023-01-30T11:47:22;99255.31;;;1.60;100.00
52927;BME280;40783;49.710;8.842;2023-01-30T11:53:35;99271.63;;;1.80;100.00
52927;BME280;40783;49.710;8.842;2023-01-30T12:01:49;99284.47;;;1.99;100.00
52927;BME280;40783;49.710;8.842;2023-01-30T12:04:17;99286.06;;;2.02;100.00
52927;BME280;40783;49.710;8.842;2023-01-30T12:06:44;99296.44;;;2.05;100.00
52927;BME280;40783;49.710;8.842;2023-01-30T12:09:31;99295.72;;;2.16;100.00
52927;BME280;40783;49.710;8.842;2023-01-30T12:11:58;99285.56;;;2.10;100.00
52927;BME280;40783;49.710;8.842;2023-01-30T12:14:40;99306.34;;;2.14;100.00
52927;BME280;40783;49.710;8.842;2023-01-30T12:17:17;99302.88;;;2.14;100.00
52927;BME280;40783;49.710;8.842;2023-01-30T12:23:02;99280.66;;;2.31;100.00
52927;BME280;40783;49.710;8.842;2023-01-30T12:25:34;99279.16;;;2.27;100.00
52927;BME280;40783;49.710;8.842;2023-01-30T12:28:03;99276.03;;;2.34;100.00
52927;BME280;40783;49.710;8.842;2023-01-30T12:30:41;99285.94;;;2.31;100.00
52927;BME280;40783;49.710;8.842;2023-01-30T12:33:11;99293.75;;;2.32;100.00
52927;BME280;40783;49.710;8.842;2023-01-30T12:36:00;99289.66;;;2.41;100.00
52927;BME280;40783;49.710;8.842;2023-01-30T12:53:01;99281.72;;;2.28;100.00
52927;BME280;40783;49.710;8.842;2023-01-30T12:58:20;99276.13;;;2.46;100.00
52927;BME280;40783;49.710;8.842;2023-01-30T13:12:23;99283.03;;;2.48;100.00
52927;BME280;40783;49.710;8.842;2023-01-30T13:14:54;99287.03;;;2.54;100.00
52927;BME280;40783;49.710;8.842;2023-01-30T13:28:18;99283.75;;;2.50;100.00
52927;BME280;40783;49.710;8.842;2023-01-30T13:30:50;99289.03;;;2.50;100.00
52927;BME280;40783;49.710;8.842;2023-01-30T13:33:21;99280.72;;;2.57;100.00
52927;BME280;40783;49.710;8.842;2023-01-30T13:35:51;99288.94;;;2.52;100.00
52927;BME280;40783;49.710;8.842;2023-01-30T13:41:45;99300.97;;;2.69;100.00
52927;BME280;40783;49.710;8.842;2023-01-30T13:44:21;99289.16;;;2.62;100.00
52927;BME280;40783;49.710;8.842;2023-01-30T13:46:51;99305.75;;;2.64;100.00
52927;BME280;40783;49.710;8.842;2023-01-30T13:49:24;99297.19;;;2.73;100.00
52927;BME280;40783;49.710;8.842;2023-01-30T13:52:01;99305.44;;;2.81;100.00
52927;BME280;40783;49.710;8.842;2023-01-30T14:02:29;99292.75;;;2.74;100.00
52927;BME280;40783;49.710;8.842;2023-01-30T14:04:55;99313.75;;;2.75;100.00
52927;BME280;40783;49.710;8.842;2023-01-30T14:07:28;99311.66;;;2.80;100.00
52927;BME280;40783;49.710;8.842;2023-01-30T14:10:16;99330.78;;;2.71;100.00
52927;BME280;40783;49.710;8.842;2023-01-30T14:12:52;99319.59;;;2.80;100.00
52927;BME280;40783;49.710;8.842;2023-01-30T14:15:25;99325.50;;;2.71;100.00
52927;BME280;40783;49.710;8.842;2023-01-30T14:20:23;99332.88;;;2.66;100.00
52927;BME280;40783;49.710;8.842;2023-01-30T14:22:51;99342.41;;;2.69;100.00
52927;BME280;40783;49.710;8.842;2023-01-30T14:33:00;99330.34;;;2.64;100.00
52927;BME280;40783;49.710;8.842;2023-01-30T14:40:41;99323.19;;;2.79;100.00
52927;BME280;40783;49.710;8.842;2023-01-30T14:48:28;99321.47;;;2.78;100.00
52927;BME280;40783;49.710;8.842;2023-01-30T14:51:13;99325.28;;;2.74;100.00
52927;BME280;40783;49.710;8.842;2023-01-30T15:04:37;99376.59;;;2.70;100.00
52927;BME280;40783;49.710;8.842;2023-01-30T15:07:09;99377.03;;;2.64;100.00
52927;BME280;40783;49.710;8.842;2023-01-30T15:09:37;99396.25;;;2.66;100.00
52927;BME280;40783;49.710;8.842;2023-01-30T15:20:01;99415.72;;;2.65;100.00
52927;BME280;40783;49.710;8.842;2023-01-30T15:25:49;99412.91;;;2.54;100.00
52927;BME280;40783;49.710;8.842;2023-01-30T15:31:11;99448.97;;;2.40;100.00
52927;BME280;40783;49.710;8.842;2023-01-30T15:33:51;99459.22;;;2.45;100.00
52927;BME280;40783;49.710;8.842;2023-01-30T15:39:25;99463.50;;;2.33;100.00
52927;BME280;40783;49.710;8.842;2023-01-30T15:41:54;99461.06;;;2.15;100.00
52927;BME280;40783;49.710;8.842;2023-01-30T15:47:31;99468.59;;;2.21;100.00
52927;BME280;40783;49.710;8.842;2023-01-30T15:50:09;99469.94;;;2.14;100.00
52927;BME280;40783;49.710;8.842;2023-01-30T15:52:40;99467.66;;;2.22;100.00
52927;BME280;40783;49.710;8.842;2023-01-30T15:55:32;99464.06;;;2.23;100.00
52927;BME280;40783;49.710;8.842;2023-01-30T15:58:13;99460.69;;;2.21;100.00
52927;BME280;40783;49.710;8.842;2023-01-30T16:00:46;99470.69;;;2.16;100.00
52927;BME280;40783;49.710;8.842;2023-01-30T16:03:18;99468.03;;;2.16;100.00
52927;BME280;40783;49.710;8.842;2023-01-30T16:05:48;99465.06;;;2.08;100.00
52927;BME280;40783;49.710;8.842;2023-01-30T16:10:49;99464.88;;;1.97;100.00
52927;BME280;40783;49.710;8.842;2023-01-30T16:13:16;99465.16;;;1.92;100.00
52927;BME280;40783;49.710;8.842;2023-01-30T16:15:49;99466.22;;;1.89;100.00
52927;BME280;40783;49.710;8.842;2023-01-30T16:18:29;99476.84;;;1.88;100.00
52927;BME280;40783;49.710;8.842;2023-01-30T16:21:03;99481.91;;;1.91;100.00
52927;BME280;40783;49.710;8.842;2023-01-30T16:23:41;99496.63;;;1.95;100.00
52927;BME280;40783;49.710;8.842;2023-01-30T16:26:13;99504.25;;;2.00;100.00
52927;BME280;40783;49.710;8.842;2023-01-30T16:28:46;99516.13;;;2.07;100.00
52927;BME280;40783;49.710;8.842;2023-01-30T16:31:12;99516.31;;;2.04;100.00
52927;BME280;40783;49.710;8.842;2023-01-30T16:33:40;99522.91;;;2.11;100.00
52927;BME280;40783;49.710;8.842;2023-01-30T16:38:52;99527.06;;;2.01;100.00
52927;BME280;40783;49.710;8.842;2023-01-30T16:44:17;99528.19;;;2.11;100.00
52927;BME280;40783;49.710;8.842;2023-01-30T16:49:39;99532.91;;;2.06;100.00
52927;BME280;40783;49.710;8.842;2023-01-30T16:54:53;99525.00;;;2.06;100.00
52927;BME280;40783;49.710;8.842;2023-01-30T16:57:36;99537.25;;;2.07;100.00
52927;BME280;40783;49.710;8.842;2023-01-30T17:02:55;99547.00;;;2.19;100.00
52927;BME280;40783;49.710;8.842;2023-01-30T17:05:24;99553.81;;;2.23;100.00
52927;BME280;40783;49.710;8.842;2023-01-30T17:07:51;99555.69;;;2.21;100.00
52927;BME280;40783;49.710;8.842;2023-01-30T17:13:00;99558.88;;;2.27;100.00
52927;BME280;40783;49.710;8.842;2023-01-30T17:15:29;99567.56;;;2.29;100.00
52927;BME280;40783;49.710;8.842;2023-01-30T17:18:00;99574.53;;;2.30;100.00
52927;BME280;40783;49.710;8.842;2023-01-30T17:20:35;99561.34;;;2.30;100.00
52927;BME280;40783;49.710;8.842;2023-01-30T17:23:07;99569.06;;;2.33;100.00
52927;BME280;40783;49.710;8.842;2023-01-30T17:25:38;99588.22;;;2.36;100.00
52927;BME280;40783;49.710;8.842;2023-01-30T17:28:07;99583.41;;;2.29;100.00
52927;BME280;40783;49.710;8.842;2023-01-30T17:30:32;99584.06;;;2.32;100.00
52927;BME280;40783;49.710;8.842;2023-01-30T17:32:57;99595.84;;;2.27;100.00
52927;BME280;40783;49.710;8.842;2023-01-30T17:35:22;99582.81;;;2.23;100.00
52927;BME280;40783;49.710;8.842;2023-01-30T17:37:50;99586.97;;;2.28;100.00
52927;BME280;40783;49.710;8.842;2023-01-30T17:40:19;99597.72;;;2.25;100.00
52927;BME280;40783;49.710;8.842;2023-01-30T17:42:48;99593.38;;;2.23;100.00
52927;BME280;40783;49.710;8.842;2023-01-30T17:45:14;99596.22;;;2.20;100.00
52927;BME280;40783;49.710;8.842;2023-01-30T17:47:39;99604.22;;;2.19;100.00
52927;BME280;40783;49.710;8.842;2023-01-30T17:50:05;99617.13;;;2.23;100.00
52927;BME280;40783;49.710;8.842;2023-01-30T17:52:32;99622.78;;;2.32;100.00
52927;BME280;40783;49.710;8.842;2023-01-30T17:54:58;99621.41;;;2.26;100.00
52927;BME280;40783;49.710;8.842;2023-01-30T17:57:25;99617.13;;;2.23;100.00
52927;BME280;40783;49.710;8.842;2023-01-30T17:59:53;99629.19;;;2.28;100.00
52927;BME280;40783;49.710;8.842;2023-01-30T18:02:21;99629.38;;;2.25;100.00
52927;BME280;40783;49.710;8.842;2023-01-30T18:04:52;99633.66;;;2.27;100.00
52927;BME280;40783;49.710;8.842;2023-01-30T18:07:17;99632.78;;;2.27;100.00
52927;BME280;40783;49.710;8.842;2023-01-30T18:09:45;99639.75;;;2.28;100.00
52927;BME280;40783;49.710;8.842;2023-01-30T18:12:13;99645.03;;;2.28;100.00
52927;BME280;40783;49.710;8.842;2023-01-30T18:14:38;99643.34;;;2.27;100.00
52927;BME280;40783;49.710;8.842;2023-01-30T18:17:06;99640.69;;;2.27;100.00
52927;BME280;40783;49.710;8.842;2023-01-30T18:19:33;99650.50;;;2.25;100.00
52927;BME280;40783;49.710;8.842;2023-01-30T18:22:00;99659.34;;;2.23;100.00
52927;BME280;40783;49.710;8.842;2023-01-30T18:24:25;99668.03;;;2.26;100.00
52927;BME280;40783;49.710;8.842;2023-01-30T18:26:51;99662.94;;;2.22;100.00
52927;BME280;40783;49.710;8.842;2023-01-30T18:29:16;99672.91;;;2.17;100.00
52927;BME280;40783;49.710;8.842;2023-01-30T18:31:44;99668.31;;;2.21;100.00
52927;BME280;40783;49.710;8.842;2023-01-30T18:34:09;99674.72;;;2.17;100.00
52927;BME280;40783;49.710;8.842;2023-01-30T18:36:38;99671.78;;;2.21;100.00
52927;BME280;40783;49.710;8.842;2023-01-30T18:39:03;99675.56;;;2.17;100.00
52927;BME280;40783;49.710;8.842;2023-01-30T18:41:29;99684.22;;;2.19;100.00
52927;BME280;40783;49.710;8.842;2023-01-30T18:43:57;99686.09;;;2.17;100.00
52927;BME280;40783;49.710;8.842;2023-01-30T18:46:23;99696.66;;;2.17;100.00
52927;BME280;40783;49.710;8.842;2023-01-30T18:48:49;99694.31;;;2.13;100.00
52927;BME280;40783;49.710;8.842;2023-01-30T18:51:21;99707.22;;;2.17;100.00
52927;BME280;40783;49.710;8.842;2023-01-30T18:53:49;99710.63;;;2.19;100.00
52927;BME280;40783;49.710;8.842;2023-01-30T18:56:23;99710.81;;;2.16;100.00
52927;BME280;40783;49.710;8.842;2023-01-30T18:58:48;99717.00;;;2.15;100.00
52927;BME280;40783;49.710;8.842;2023-01-30T19:01:21;99719.66;;;2.15;100.00
52927;BME280;40783;49.710;8.842;2023-01-30T19:03:47;99720.88;;;2.10;100.00
52927;BME280;40783;49.710;8.842;2023-01-30T19:06:14;99721.53;;;2.13;100.00
52927;BME280;40783;49.710;8.842;2023-01-30T19:08:45;99728.13;;;2.06;100.00
52927;BME280;40783;49.710;8.842;2023-01-30T19:11:15;99731.06;;;2.16;100.00
52927;BME280;40783;49.710;8.842;2023-01-30T19:14:03;99730.38;;;2.12;100.00
52927;BME280;40783;49.710;8.842;2023-01-30T19:16:30;99745.88;;;2.18;100.00
52927;BME280;40783;49.710;8.842;2023-01-30T19:18:56;99747.91;;;2.13;100.00
52927;BME280;40783;49.710;8.842;2023-01-30T19:21:24;99739.63;;;2.05;100.00
52927;BME280;40783;49.710;8.842;2023-01-30T19:23:53;99745.50;;;2.10;100.00
52927;BME280;40783;49.710;8.842;2023-01-30T19:26:20;99749.63;;;2.14;100.00
52927;BME280;40783;49.710;8.842;2023-01-30T19:28:46;99747.91;;;2.13;100.00
52927;BME280;40783;49.710;8.842;2023-01-30T19:31:16;99753.03;;;2.16;100.00
52927;BME280;40783;49.710;8.842;2023-01-30T19:33:52;99751.50;;;2.12;100.00
52927;BME280;40783;49.710;8.842;2023-01-30T19:36:20;99758.47;;;2.13;100.00
52927;BME280;40783;49.710;8.842;2023-01-30T19:38:46;99760.38;;;2.11;100.00
52927;BME280;40783;49.710;8.842;2023-01-30T19:41:17;99763.03;;;2.11;100.00
52927;BME280;40783;49.710;8.842;2023-01-30T19:43:43;99759.22;;;2.01;100.00
52927;BME280;40783;49.710;8.842;2023-01-30T19:46:09;99764.31;;;2.04;100.00
52927;BME280;40783;49.710;8.842;2023-01-30T19:48:41;99746.50;;;2.07;100.00
52927;BME280;40783;49.710;8.842;2023-01-30T19:51:19;99746.00;;;2.01;100.00
52927;BME280;40783;49.710;8.842;2023-01-30T19:53:58;99769.59;;;2.04;100.00
52927;BME280;40783;49.710;8.842;2023-01-30T19:56:27;99780.78;;;2.07;100.00
52927;BME280;40783;49.710;8.842;2023-01-30T19:58:54;99774.50;;;2.10;100.00
52927;BME280;40783;49.710;8.842;2023-01-30T20:01:21;99779.59;;;2.13;100.00
52927;BME280;40783;49.710;8.842;2023-01-30T20:03:47;99789.31;;;2.13;100.00
52927;BME280;40783;49.710;8.842;2023-01-30T20:06:18;99786.25;;;2.04;100.00
52927;BME280;40783;49.710;8.842;2023-01-30T20:08:45;99788.44;;;2.12;100.00
52927;BME280;40783;49.710;8.842;2023-01-30T20:11:16;99789.97;;;2.16;100.00
52927;BME280;40783;49.710;8.842;2023-01-30T20:13:49;99791.84;;;2.14;100.00
52927;BME280;40783;49.710;8.842;2023-01-30T20:16:18;99781.09;;;2.17;100.00
52927;BME280;40783;49.710;8.842;2023-01-30T20:18:54;99791.91;;;2.29;100.00
52927;BME280;40783;49.710;8.842;2023-01-30T20:21:22;99795.75;;;2.23;100.00
52927;BME280;40783;49.710;8.842;2023-01-30T20:23:48;99804.09;;;2.15;100.00
52927;BME280;40783;49.710;8.842;2023-01-30T20:26:21;99807.50;;;2.17;100.00
52927;BME280;40783;49.710;8.842;2023-01-30T20:28:48;99805.44;;;2.22;100.00
52927;BME280;40783;49.710;8.842;2023-01-30T20:31:19;99809.88;;;2.22;100.00
52927;BME280;40783;49.710;8.842;2023-01-30T20:33:45;99819.16;;;2.13;100.00
52927;BME280;40783;49.710;8.842;2023-01-30T20:36:14;99815.41;;;2.17;100.00
52927;BME280;40783;49.710;8.842;2023-01-30T20:38:41;99817.22;;;2.17;100.00
52927;BME280;40783;49.710;8.842;2023-01-30T20:41:15;99826.13;;;2.14;100.00
52927;BME280;40783;49.710;8.842;2023-01-30T20:43:45;99837.63;;;2.13;100.00
52927;BME280;40783;49.710;8.842;2023-01-30T20:46:13;99841.03;;;2.15;100.00
52927;BME280;40783;49.710;8.842;2023-01-30T20:48:40;99837.91;;;2.08;100.00
52927;BME280;40783;49.710;8.842;2023-01-30T20:51:13;99832.34;;;2.13;100.00
52927;BME280;40783;49.710;8.842;2023-01-30T20:53:54;99838.66;;;2.11;100.00
52927;BME280;40783;49.710;8.842;2023-01-30T20:56:24;99852.13;;;2.06;100.00
52927;BME280;40783;49.710;8.842;2023-01-30T20:58:50;99848.03;;;2.00;100.00
52927;BME280;40783;49.710;8.842;2023-01-30T21:01:18;99854.00;;;2.04;100.00
52927;BME280;40783;49.710;8.842;2023-01-30T21:03:44;99852.13;;;2.06;100.00
52927;BME280;40783;49.710;8.842;2023-01-30T21:06:13;99853.72;;;2.08;100.00
52927;BME280;40783;49.710;8.842;2023-01-30T21:08:41;99856.19;;;2.12;100.00
52927;BME280;40783;49.710;8.842;2023-01-30T21:11:08;99849.41;;;2.07;100.00
52927;BME280;40783;49.710;8.842;2023-01-30T21:13:34;99855.53;;;2.08;100.00